Time;durP1;ratioP1;P1;durP2;ratioP2;P2;SDS_P1;SDS_P2;PMS_P1;PMS_P2;Temp;Humidity;BMP_temperature;BMP_pressure;BME280_temperature;BME280_humidity;BME280_pressure;Samples;Min_cycle;Max_cycle;Signal;HPM_P1;HPM_P2
2022/10/24 00:01:22;;;;;;;11.60;7.65;;;;;;;;;;6287669;22;20094;-84
2022/10/24 00:03:48;;;;;;;11.60;7.93;;;;;;;;;;6289541;22;20006;-84
2022/10/24 00:06:13;;;;;;;;;;;;;;;;;;6291568;22;20011;-84
2022/10/24 00:08:39;;;;;;;10.38;7.60;;;;;;;;;;6290893;22;19907;-84
2022/10/24 00:11:04;;;;;;;;;;;;;;;;;;6267528;22;20011;-83
2022/10/24 00:13:30;;;;;;;8.90;6.85;;;;;;;;;;6291727;22;20234;-84
2022/10/24 00:15:55;;;;;;;;;;;;;;;;;;6266046;22;20007;-83
2022/10/24 00:18:21;;;;;;;9.48;6.80;;;;;;;;;;6316564;22;19969;-83
2022/10/24 00:20:46;;;;;;;;;;;;;;;;;;6290593;22;20010;-83
2022/10/24 00:23:12;;;;;;;11.75;8.85;;;;;;;;;;6290059;22;19914;-83
2022/10/24 00:25:38;;;;;;;;;;;;;;;;;;6290231;22;20046;-83
2022/10/24 00:28:03;;;;;;;9.52;7.90;;;;;;;;;;6294910;22;19903;-83
2022/10/24 00:30:29;;;;;;;9.35;7.40;;;;;;;;;;6318194;22;20038;-83
2022/10/24 00:32:54;;;;;;;;;;;;;;;;;;6293931;22;20007;-83
2022/10/24 00:35:20;;;;;;;10.88;7.90;;;;;;;;;;6271101;22;19906;-84
2022/10/24 00:37:45;;;;;;;12.38;8.38;;;;;;;;;;6293909;22;19995;-84
2022/10/24 00:40:12;;;;;;;13.90;7.80;;;;;;;;;;6289876;22;20016;-84
2022/10/24 00:42:38;;;;;;;11.13;8.02;;;;;;;;;;6288441;22;20082;-83
2022/10/24 00:45:24;;;;;;;12.55;8.63;;;;;;;;;;6291074;22;20022;-84
2022/10/24 00:47:49;;;;;;;14.05;8.73;;;;;;;;;;6248999;22;20026;-83
2022/10/24 00:50:15;;;;;;;14.02;8.15;;;;;;;;;;6288394;22;19999;-84
2022/10/24 00:52:40;;;;;;;;;;;;;;;;;;6263790;22;20120;-83
2022/10/24 00:55:06;;;;;;;12.75;8.43;;;;;;;;;;6317332;22;19903;-83
2022/10/24 00:57:45;;;;;;;10.57;7.80;;;;;;;;;;6290848;22;20057;-83
2022/10/24 01:00:15;;;;;;;10.95;7.63;;;;;;;;;;6263766;22;20007;-83
2022/10/24 01:02:40;;;;;;;13.70;9.10;;;;;;;;;;6291515;22;20041;-84
2022/10/24 01:05:06;;;;;;;12.88;9.05;;;;;;;;;;6264811;22;20015;-84
2022/10/24 01:07:37;;;;;;;13.45;9.63;;;;;;;;;;6262444;22;19999;-82
2022/10/24 01:10:02;;;;;;;12.98;9.18;;;;;;;;;;6289167;22;20063;-83
2022/10/24 01:12:42;;;;;;;14.27;8.77;;;;;;;;;;6264472;22;20334;-83
2022/10/24 01:15:11;;;;;;;14.07;9.82;;;;;;;;;;6289659;22;20007;-83
2022/10/24 01:17:45;;;;;;;11.77;8.80;;;;;;;;;;6289221;22;20020;-83
2022/10/24 01:20:11;;;;;;;13.57;9.77;;;;;;;;;;6315401;22;20014;-84
2022/10/24 01:22:49;;;;;;;12.10;8.65;;;;;;;;;;6287696;22;20085;-84
2022/10/24 01:25:22;;;;;;;14.65;9.40;;;;;;;;;;6288019;22;20426;-84
2022/10/24 01:28:07;;;;;;;15.57;10.00;;;;;;;;;;6261814;22;20021;-83
2022/10/24 01:30:37;;;;;;;13.20;9.30;;;;;;;;;;6289203;22;20011;-84
2022/10/24 01:33:03;;;;;;;13.57;8.70;;;;;;;;;;6314016;22;20009;-83
2022/10/24 01:35:34;;;;;;;15.15;9.65;;;;;;;;;;6262935;22;20067;-84
2022/10/24 01:38:06;;;;;;;14.02;9.82;;;;;;;;;;6263831;22;20018;-84
2022/10/24 01:40:32;;;;;;;14.05;10.23;;;;;;;;;;6264937;22;20358;-84
2022/10/24 01:42:58;;;;;;;15.50;9.93;;;;;;;;;;6290134;22;20003;-84
2022/10/24 01:45:28;;;;;;;14.90;10.40;;;;;;;;;;6288565;22;20011;-84
2022/10/24 01:47:54;;;;;;;15.98;10.35;;;;;;;;;;6290846;22;20018;-84
2022/10/24 01:50:20;;;;;;;17.35;10.48;;;;;;;;;;6266118;22;20003;-84
2022/10/24 01:52:45;;;;;;;13.70;10.13;;;;;;;;;;6290021;22;20458;-83
2022/10/24 01:55:11;;;;;;;14.98;10.75;;;;;;;;;;6316259;22;20021;-83
2022/10/24 01:57:37;;;;;;;17.63;10.90;;;;;;;;;;6288975;22;20007;-84
2022/10/24 02:00:03;;;;;;;16.05;10.75;;;;;;;;;;6288123;22;20002;-84
2022/10/24 02:02:40;;;;;;;21.30;11.25;;;;;;;;;;6289305;22;20023;-84
2022/10/24 02:05:07;;;;;;;14.45;10.60;;;;;;;;;;6288452;22;20102;-83
2022/10/24 02:07:32;;;;;;;14.43;9.82;;;;;;;;;;6288735;22;20419;-82
2022/10/24 02:09:59;;;;;;;17.58;10.52;;;;;;;;;;6288666;22;20041;-83
2022/10/24 02:12:25;;;;;;;15.48;10.68;;;;;;;;;;6265072;22;20004;-83
2022/10/24 02:14:52;;;;;;;17.35;11.60;;;;;;;;;;6316799;22;20034;-83
2022/10/24 02:17:18;;;;;;;18.73;11.77;;;;;;;;;;6291925;22;20461;-83
2022/10/24 02:19:44;;;;;;;18.65;11.48;;;;;;;;;;6292859;22;20011;-84
2022/10/24 02:22:28;;;;;;;17.88;12.10;;;;;;;;;;6266525;22;20022;-84
2022/10/24 02:25:00;;;;;;;15.82;11.88;;;;;;;;;;6266584;22;20013;-83
2022/10/24 02:27:30;;;;;;;16.83;11.55;;;;;;;;;;6291319;22;20339;-83
2022/10/24 02:30:06;;;;;;;17.88;11.82;;;;;;;;;;6293492;22;20011;-83
2022/10/24 02:32:42;;;;;;;18.92;10.38;;;;;;;;;;6265692;22;20038;-83
2022/10/24 02:35:08;;;;;;;16.77;11.98;;;;;;;;;;6265880;22;20007;-83
2022/10/24 02:37:34;;;;;;;18.23;11.70;;;;;;;;;;6290074;22;20312;-83
2022/10/24 02:39:59;;;;;;;16.90;12.13;;;;;;;;;;6290112;22;20015;-83
2022/10/24 02:42:27;;;;;;;15.35;10.95;;;;;;;;;;6291552;22;20456;-83
2022/10/24 02:44:52;;;;;;;19.02;11.82;;;;;;;;;;6292973;22;20094;-83
2022/10/24 02:47:18;;;;;;;19.73;13.15;;;;;;;;;;6293358;22;20415;-84
2022/10/24 02:49:43;;;;;;;;;;;;;;;;;;6267970;22;20018;-83
2022/10/24 02:52:09;;;;;;;18.38;10.82;;;;;;;;;;6266695;22;20306;-84
2022/10/24 02:54:34;;;;;;;14.20;10.02;;;;;;;;;;6290629;22;20012;-82
2022/10/24 02:57:01;;;;;;;19.95;12.23;;;;;;;;;;6291193;22;19996;-84
2022/10/24 02:59:27;;;;;;;16.35;10.90;;;;;;;;;;6291044;22;20007;-83
2022/10/24 03:01:53;;;;;;;17.85;12.25;;;;;;;;;;6291051;22;20010;-84
2022/10/24 03:04:18;;;;;;;15.38;10.15;;;;;;;;;;6289344;22;20090;-83
2022/10/24 03:06:44;;;;;;;17.08;10.10;;;;;;;;;;6289143;22;20427;-84
2022/10/24 03:09:09;;;;;;;;;;;;;;;;;;6292344;22;20015;-83
2022/10/24 03:11:35;;;;;;;16.75;10.25;;;;;;;;;;6265917;22;19906;-83
2022/10/24 03:14:00;;;;;;;;;;;;;;;;;;6289310;22;20011;-83
2022/10/24 03:16:27;;;;;;;17.35;10.98;;;;;;;;;;6317334;22;19903;-84
2022/10/24 03:18:53;;;;;;;14.93;10.90;;;;;;;;;;6289137;22;20055;-83
2022/10/24 03:21:18;;;;;;;13.30;9.52;;;;;;;;;;6291311;22;20116;-83
2022/10/24 03:23:44;;;;;;;;;;;;;;;;;;6290619;22;20014;-83
2022/10/24 03:26:10;;;;;;;17.38;10.85;;;;;;;;;;6270726;22;19911;-85
2022/10/24 03:28:35;;;;;;;14.50;8.50;;;;;;;;;;6266684;22;20019;-85
2022/10/24 03:31:01;;;;;;;;;;;;;;;;;;6292432;22;20334;-83
2022/10/24 03:33:26;;;;;;;14.38;9.73;;;;;;;;;;6268804;22;19907;-83
2022/10/24 03:35:52;;;;;;;;;;;;;;;;;;6269384;22;20025;-84
2022/10/24 03:38:18;;;;;;;13.65;9.52;;;;;;;;;;6269484;22;19929;-84
2022/10/24 03:40:43;;;;;;;14.32;9.70;;;;;;;;;;6272148;22;20010;-84
2022/10/24 03:43:09;;;;;;;12.13;8.23;;;;;;;;;;6298541;22;20008;-84
2022/10/24 03:45:36;;;;;;;;;;;;;;;;;;6297420;22;19991;-81
2022/10/24 03:48:04;;;;;;;15.00;9.00;;;;;;;;;;6272827;22;20357;-84
2022/10/24 03:50:30;;;;;;;11.48;7.95;;;;;;;;;;6296101;22;19995;-85
2022/10/24 03:52:56;;;;;;;13.95;8.95;;;;;;;;;;6296606;22;20042;-84
2022/10/24 03:55:21;;;;;;;;;;;;;;;;;;6296616;22;19995;-84
2022/10/24 03:57:46;;;;;;;14.40;9.02;;;;;;;;;;6268572;22;19899;-85
2022/10/24 04:00:12;;;;;;;13.77;8.82;;;;;;;;;;6321757;22;20006;-83
2022/10/24 04:02:38;;;;;;;11.73;7.85;;;;;;;;;;6270072;22;20015;-84
2022/10/24 04:05:04;;;;;;;12.70;7.80;;;;;;;;;;6268650;22;19999;-84
2022/10/24 04:07:29;;;;;;;13.73;7.75;;;;;;;;;;6270838;22;20045;-83
2022/10/24 04:09:56;;;;;;;;;;;;;;;;;;6295444;22;20334;-82
2022/10/24 04:12:22;;;;;;;12.50;7.32;;;;;;;;;;6324210;22;19910;-84
2022/10/24 04:14:47;;;;;;;15.10;7.65;;;;;;;;;;6269512;22;20030;-84
2022/10/24 04:17:13;;;;;;;;;;;;;;;;;;6298062;22;20086;-84
2022/10/24 04:19:38;;;;;;;11.32;7.28;;;;;;;;;;6272460;22;19914;-85
2022/10/24 04:22:04;;;;;;;10.65;6.47;;;;;;;;;;6299224;22;20015;-84
2022/10/24 04:24:29;;;;;;;;;;;;;;;;;;6274368;22;20007;-85
2022/10/24 04:26:55;;;;;;;12.15;6.32;;;;;;;;;;6275404;22;19914;-85
2022/10/24 04:29:20;;;;;;;;;;;;;;;;;;6297436;22;19995;-85
2022/10/24 04:31:46;;;;;;;12.82;6.78;;;;;;;;;;6296600;22;19940;-85
2022/10/24 04:34:11;;;;;;;13.60;7.20;;;;;;;;;;6321730;22;19995;-84
2022/10/24 04:36:37;;;;;;;10.32;6.28;;;;;;;;;;6270889;22;20007;-84
2022/10/24 04:39:02;;;;;;;;;;;;;;;;;;6297060;22;20050;-85
2022/10/24 04:41:28;;;;;;;15.60;6.90;;;;;;;;;;6302790;22;19926;-84
2022/10/24 04:43:55;;;;;;;;;;;;;;;;;;6304775;22;19995;-84
2022/10/24 04:46:20;;;;;;;11.18;5.65;;;;;;;;;;6276075;22;19928;-84
2022/10/24 04:48:46;;;;;;;;;;;;;;;;;;6277609;22;19999;-82
2022/10/24 04:51:11;;;;;;;10.90;6.40;;;;;;;;;;6301284;22;19939;-85
2022/10/24 04:53:37;;;;;;;8.85;5.50;;;;;;;;;;6277977;22;20006;-84
2022/10/24 04:56:02;;;;;;;;;;;;;;;;;;6327282;22;20011;-84
2022/10/24 04:58:28;;;;;;;9.80;5.78;;;;;;;;;;6298821;22;19909;-83
2022/10/24 05:00:53;;;;;;;;;;;;;;;;;;6302723;22;20049;-84
2022/10/24 05:03:19;;;;;;;10.73;5.38;;;;;;;;;;6277966;22;19977;-83
2022/10/24 05:05:44;;;;;;;;;;;;;;;;;;6277814;22;20015;-84
2022/10/24 05:08:10;;;;;;;9.07;5.32;;;;;;;;;;6278013;22;19906;-84
2022/10/24 05:10:36;;;;;;;8.82;6.20;;;;;;;;;;6299465;22;20018;-84
2022/10/24 05:13:02;;;;;;;9.23;5.10;;;;;;;;;;6271728;22;19995;-82
2022/10/24 05:15:28;;;;;;;8.50;5.20;;;;;;;;;;6273399;22;20014;-83
2022/10/24 05:17:55;;;;;;;8.40;4.97;;;;;;;;;;6298140;22;20111;-85
2022/10/24 05:20:20;;;;;;;7.30;5.18;;;;;;;;;;6294759;22;20450;-82
2022/10/24 05:22:46;;;;;;;9.27;5.00;;;;;;;;;;6274628;22;20011;-82
2022/10/24 05:25:11;;;;;;;8.75;5.22;;;;;;;;;;6289119;22;20027;-83
2022/10/24 05:27:37;;;;;;;5.97;4.18;;;;;;;;;;6266633;22;20145;-82
2022/10/24 05:30:03;;;;;;;9.68;5.63;;;;;;;;;;6262119;22;20085;-82
2022/10/24 05:32:33;;;;;;;8.80;5.40;;;;;;;;;;6269360;22;19994;-83
2022/10/24 05:35:05;;;;;;;11.10;6.03;;;;;;;;;;6293794;22;20004;-84
2022/10/24 05:37:31;;;;;;;9.90;5.70;;;;;;;;;;6291509;22;20011;-83
2022/10/24 05:39:56;;;;;;;6.95;4.22;;;;;;;;;;6242148;22;20002;-83
2022/10/24 05:42:22;;;;;;;8.45;5.32;;;;;;;;;;6268157;22;20016;-83
2022/10/24 05:44:48;;;;;;;7.95;5.25;;;;;;;;;;6264532;22;20031;-84
2022/10/24 05:47:13;;;;;;;;;;;;;;;;;;6264770;22;20012;-81
2022/10/24 05:49:39;;;;;;;7.32;4.80;;;;;;;;;;6317125;22;19907;-83
2022/10/24 05:52:04;;;;;;;;;;;;;;;;;;6294650;22;20493;-83
2022/10/24 05:54:30;;;;;;;5.80;4.30;;;;;;;;;;6268610;22;19903;-83
2022/10/24 05:56:55;;;;;;;7.43;4.50;;;;;;;;;;6296757;22;20019;-83
2022/10/24 05:59:21;;;;;;;;;;;;;;;;;;6295371;22;20006;-82
2022/10/24 06:01:47;;;;;;;7.80;4.68;;;;;;;;;;6295866;22;20287;-82
2022/10/24 06:04:12;;;;;;;7.45;4.63;;;;;;;;;;6270062;22;20003;-83
2022/10/24 06:07:02;;;;;;;6.97;5.15;;;;;;;;;;6299236;22;20017;-82
2022/10/24 06:09:29;;;;;;;6.72;4.93;;;;;;;;;;6290613;22;20455;-83
2022/10/24 06:11:54;;;;;;;6.53;4.60;;;;;;;;;;6240303;22;20015;-83
2022/10/24 06:14:20;;;;;;;6.70;4.28;;;;;;;;;;6264275;22;20012;-83
2022/10/24 06:16:45;;;;;;;6.28;4.15;;;;;;;;;;6266811;22;20003;-83
2022/10/24 06:19:11;;;;;;;6.78;4.20;;;;;;;;;;6265024;22;20012;-82
2022/10/24 06:21:36;;;;;;;7.18;3.90;;;;;;;;;;6242205;22;20007;-83
2022/10/24 06:24:02;;;;;;;6.75;4.30;;;;;;;;;;6271143;22;20451;-83
2022/10/24 06:26:28;;;;;;;6.22;4.60;;;;;;;;;;6270962;22;20070;-84
2022/10/24 06:28:54;;;;;;;6.60;4.63;;;;;;;;;;6275074;22;20007;-83
2022/10/24 06:31:20;;;;;;;7.15;4.05;;;;;;;;;;6277510;22;20003;-83
2022/10/24 06:33:46;;;;;;;;;;;;;;;;;;6299950;22;20011;-84
2022/10/24 06:36:13;;;;;;;5.72;4.18;;;;;;;;;;6273918;22;19911;-82
2022/10/24 06:38:38;;;;;;;5.90;3.65;;;;;;;;;;6298550;22;20046;-82
2022/10/24 06:41:04;;;;;;;;;;;;;;;;;;6273327;22;19999;-83
2022/10/24 06:43:30;;;;;;;6.20;4.13;;;;;;;;;;6302653;22;19907;-83
2022/10/24 06:45:56;;;;;;;9.68;3.92;;;;;;;;;;6250400;22;20063;-84
2022/10/24 06:48:21;;;;;;;6.38;4.32;;;;;;;;;;6246928;22;20048;-82
2022/10/24 06:50:47;;;;;;;7.05;4.00;;;;;;;;;;6246789;22;20418;-83
2022/10/24 06:53:12;;;;;;;;;;;;;;;;;;6271926;22;20007;-82
2022/10/24 06:55:39;;;;;;;5.93;4.57;;;;;;;;;;6298379;22;19942;-83
2022/10/24 06:58:05;;;;;;;;;;;;;;;;;;6268278;22;20019;-82
2022/10/24 07:00:32;;;;;;;7.53;4.65;;;;;;;;;;6273369;22;19925;-85
2022/10/24 07:02:58;;;;;;;5.15;3.60;;;;;;;;;;6247874;22;20007;-83
2022/10/24 07:05:23;;;;;;;4.85;3.22;;;;;;;;;;6276520;22;20037;-84
2022/10/24 07:07:49;;;;;;;;;;;;;;;;;;6254444;22;20366;-84
2022/10/24 07:10:14;;;;;;;5.70;4.28;;;;;;;;;;6278968;22;19943;-84
2022/10/24 07:12:40;;;;;;;;;;;;;;;;;;6278682;22;20034;-84
2022/10/24 07:15:05;;;;;;;5.15;3.95;;;;;;;;;;6278313;22;19914;-83
2022/10/24 07:17:37;;;;;;;5.95;3.65;;;;;;;;;;6277691;22;20007;-83
2022/10/24 07:20:03;;;;;;;6.65;3.67;;;;;;;;;;6253472;22;20568;-84
2022/10/24 07:22:28;;;;;;;5.63;3.85;;;;;;;;;;6278547;22;19999;-83
2022/10/24 07:24:54;;;;;;;;;;;;;;;;;;6283032;22;20033;-84
2022/10/24 07:27:20;;;;;;;6.90;3.75;;;;;;;;;;6278567;22;19936;-84
2022/10/24 07:29:46;;;;;;;8.38;4.25;;;;;;;;;;6254012;22;20010;-84
2022/10/24 07:32:11;;;;;;;;;;;;;;;;;;6251728;22;20015;-83
2022/10/24 07:34:37;;;;;;;6.75;3.80;;;;;;;;;;6277128;22;19914;-83
2022/10/24 07:37:03;;;;;;;6.03;4.22;;;;;;;;;;6251798;22;20068;-84
2022/10/24 07:39:28;;;;;;;;;;;;;;;;;;6278269;22;20434;-83
2022/10/24 07:41:54;;;;;;;7.38;5.50;;;;;;;;;;6277996;22;19902;-84
2022/10/24 07:44:19;;;;;;;;;;;;;;;;;;6253430;22;20022;-84
2022/10/24 07:46:45;;;;;;;9.15;5.22;;;;;;;;;;6274802;22;19903;-84
2022/10/24 07:49:11;;;;;;;9.05;5.35;;;;;;;;;;6277639;22;19987;-80
2022/10/24 07:51:39;;;;;;;9.32;5.90;;;;;;;;;;6276967;22;20010;-84
2022/10/24 07:56:39;;;;;;;6.72;4.25;;;;;;;;;;6329420;22;20026;-84
2022/10/24 08:01:41;;;;;;;4.78;3.70;;;;;;;;;;6359683;22;20027;-84
2022/10/24 08:04:08;;;;;;;;;;;;;;;;;;6308569;22;20010;-84
2022/10/24 08:06:33;;;;;;;5.90;3.80;;;;;;;;;;6309304;22;19944;-83
2022/10/24 08:08:59;;;;;;;;;;;;;;;;;;6284031;22;20014;-83
2022/10/24 08:11:25;;;;;;;7.05;3.78;;;;;;;;;;6291307;22;19942;-85
2022/10/24 08:13:50;;;;;;;;;;;;;;;;;;6248740;22;20053;-83
2022/10/24 08:16:17;;;;;;;5.60;3.58;;;;;;;;;;6296874;22;19903;-83
2022/10/24 08:18:42;;;;;;;9.68;4.15;;;;;;;;;;6268736;22;20019;-83
2022/10/24 08:21:20;;;;;;;7.88;4.35;;;;;;;;;;6270692;22;19992;-83
2022/10/24 08:23:46;;;;;;;4.00;3.42;;;;;;;;;;6270600;22;20012;-84
2022/10/24 08:26:11;;;;;;;;;;;;;;;;;;6270710;22;20004;-82
2022/10/24 08:28:37;;;;;;;5.93;3.60;;;;;;;;;;6292642;22;20286;-84
2022/10/24 08:31:02;;;;;;;;;;;;;;;;;;6268271;22;20000;-83
2022/10/24 08:33:28;;;;;;;5.57;3.20;;;;;;;;;;6300001;22;19887;-83
2022/10/24 08:35:54;;;;;;;;;;;;;;;;;;6297922;22;19980;-82
2022/10/24 08:40:55;;;;;;;4.32;2.97;;;;;;;;;;6357491;22;20038;-84
2022/10/24 08:43:22;;;;;;;;;;;;;;;;;;6308154;22;20009;-84
2022/10/24 08:45:47;;;;;;;5.45;2.70;;;;;;;;;;6309993;22;19926;-84
2022/10/24 08:48:17;;;;;;;3.88;2.85;;;;;;;;;;6309763;22;20003;-83
2022/10/24 08:50:43;;;;;;;5.32;2.80;;;;;;;;;;6309887;22;20005;-84
2022/10/24 08:53:21;;;;;;;5.25;2.95;;;;;;;;;;6283396;22;20021;-84
2022/10/24 08:55:48;;;;;;;3.67;2.50;;;;;;;;;;6282989;22;20013;-84
2022/10/24 08:58:15;;;;;;;7.05;3.10;;;;;;;;;;6284381;22;20017;-84
2022/10/24 09:00:51;;;;;;;5.20;3.20;;;;;;;;;;6311840;22;20070;-85
2022/10/24 09:03:18;;;;;;;5.95;3.25;;;;;;;;;;6310302;22;20050;-83
2022/10/24 09:05:48;;;;;;;8.18;4.10;;;;;;;;;;6282428;22;20018;-83
2022/10/24 09:08:28;;;;;;;8.90;2.92;;;;;;;;;;6282753;22;20015;-85
2022/10/24 09:10:59;;;;;;;4.07;3.30;;;;;;;;;;6309658;22;20095;-83
2022/10/24 09:13:25;;;;;;;5.13;3.15;;;;;;;;;;6284968;22;19987;-85
2022/10/24 09:15:52;;;;;;;5.47;2.90;;;;;;;;;;6336926;22;20011;-83
2022/10/24 09:18:20;;;;;;;;;;;;;;;;;;6304607;22;20030;-83
2022/10/24 09:23:22;;;;;;;6.32;3.22;;;;;;;;;;6268219;22;19931;-84
2022/10/24 09:25:48;;;;;;;;;;;;;;;;;;6192793;23;20088;-83
2022/10/24 09:28:14;;;;;;;6.00;3.30;;;;;;;;;;6216550;23;19907;-83
2022/10/24 09:30:39;;;;;;;4.95;3.00;;;;;;;;;;6214908;23;20012;-83
2022/10/24 09:33:12;;;;;;;6.50;3.08;;;;;;;;;;6191321;23;20000;-84
2022/10/24 09:35:38;;;;;;;4.68;2.35;;;;;;;;;;6216571;23;20015;-84
2022/10/24 09:38:03;;;;;;;;;;;;;;;;;;6191546;23;20000;-82
2022/10/24 09:40:30;;;;;;;3.97;2.63;;;;;;;;;;6216887;23;19915;-85
2022/10/24 09:43:12;;;;;;;3.80;2.45;;;;;;;;;;6219255;23;20009;-85
2022/10/24 09:45:58;;;;;;;5.65;2.80;;;;;;;;;;6243920;23;20052;-82
2022/10/24 09:48:23;;;;;;;;;;;;;;;;;;6219573;22;20000;-83
2022/10/24 09:50:49;;;;;;;7.38;2.58;;;;;;;;;;6260742;22;19929;-83
2022/10/24 09:53:24;;;;;;;6.50;2.60;;;;;;;;;;6335084;22;20449;-85
2022/10/24 09:55:59;;;;;;;4.47;2.42;;;;;;;;;;6285008;22;20007;-85
2022/10/24 09:58:31;;;;;;;7.32;2.53;;;;;;;;;;6309678;22;20007;-84
2022/10/24 10:00:58;;;;;;;5.32;2.38;;;;;;;;;;6310626;22;20007;-84
2022/10/24 10:03:25;;;;;;;3.25;2.13;;;;;;;;;;6308611;22;20005;-85
2022/10/24 10:05:55;;;;;;;7.88;2.30;;;;;;;;;;6310109;22;20010;-85
2022/10/24 10:08:24;;;;;;;3.33;2.40;;;;;;;;;;6310060;22;20028;-85
2022/10/24 10:11:10;;;;;;;6.35;2.33;;;;;;;;;;6333633;22;20010;-83
2022/10/24 10:13:48;;;;;;;5.82;2.40;;;;;;;;;;6334011;22;20020;-85
2022/10/24 10:16:35;;;;;;;3.83;2.47;;;;;;;;;;6312063;22;20014;-84
2022/10/24 10:19:04;;;;;;;4.93;3.03;;;;;;;;;;6311677;22;20022;-83
2022/10/24 10:21:56;;;;;;;5.00;2.13;;;;;;;;;;6364263;22;20256;-85
2022/10/24 10:30:07;;;;;;;4.78;2.30;;;;;;;;;;6300663;22;20055;-85
2022/10/24 10:37:54;;;;;;;7.78;3.42;;;;;;;;;;6353271;22;20049;-87
2022/10/24 10:49:03;;;;;;;6.00;2.70;;;;;;;;;;6363669;22;20048;-85
2022/10/24 11:10:19;;;;;;;4.30;2.10;;;;;;;;;;6302172;22;20031;-84
2022/10/24 11:12:44;;;;;;;3.45;2.30;;;;;;;;;;6251928;22;20028;-84
2022/10/24 11:15:10;;;;;;;;;;;;;;;;;;6251841;22;20016;-85
2022/10/24 11:17:37;;;;;;;3.22;1.80;;;;;;;;;;6275987;22;19914;-85
2022/10/24 11:20:21;;;;;;;4.07;2.08;;;;;;;;;;6277294;22;20007;-84
2022/10/24 11:23:13;;;;;;;4.82;2.00;;;;;;;;;;6302361;22;20011;-84
2022/10/24 11:25:48;;;;;;;5.72;2.30;;;;;;;;;;6297213;22;20018;-84
2022/10/24 11:28:21;;;;;;;5.03;1.85;;;;;;;;;;6276186;22;20007;-84
2022/10/24 11:30:50;;;;;;;4.00;2.60;;;;;;;;;;6302351;22;20019;-86
2022/10/24 11:33:20;;;;;;;7.18;2.35;;;;;;;;;;6301819;22;20004;-85
2022/10/24 11:35:58;;;;;;;4.72;2.00;;;;;;;;;;6276507;22;20016;-82
2022/10/24 11:38:25;;;;;;;6.90;2.33;;;;;;;;;;6301681;22;20004;-83
2022/10/24 11:40:50;;;;;;;;;;;;;;;;;;6276953;22;20007;-83
2022/10/24 11:43:45;;;;;;;6.78;2.30;;;;;;;;;;6274346;22;19909;-84
2022/10/24 11:46:30;;;;;;;5.32;2.55;;;;;;;;;;6237976;22;19999;-86
2022/10/24 11:48:59;;;;;;;6.03;2.22;;;;;;;;;;6303430;22;20019;-84
2022/10/24 11:56:58;;;;;;;5.93;2.10;;;;;;;;;;6360487;22;20042;-86
2022/10/24 11:59:28;;;;;;;6.30;2.17;;;;;;;;;;6312962;22;19991;-84
2022/10/24 12:01:54;;;;;;;5.93;2.30;;;;;;;;;;6312957;22;19994;-86
2022/10/24 12:04:19;;;;;;;;;;;;;;;;;;6313905;22;20020;-85
2022/10/24 12:06:52;;;;;;;3.50;2.17;;;;;;;;;;6339407;22;19925;-84
2022/10/24 12:09:21;;;;;;;4.53;1.83;;;;;;;;;;6312658;22;20007;-84
2022/10/24 12:11:50;;;;;;;5.28;1.63;;;;;;;;;;6286328;22;20071;-85
2022/10/24 12:14:17;;;;;;;2.75;1.67;;;;;;;;;;6312267;22;20013;-85
2022/10/24 12:17:08;;;;;;;2.97;1.55;;;;;;;;;;6310215;22;20001;-84
2022/10/24 12:19:35;;;;;;;5.78;1.60;;;;;;;;;;6310271;22;20067;-83
2022/10/24 12:22:04;;;;;;;3.13;1.52;;;;;;;;;;6313207;22;20087;-87
2022/10/24 12:24:37;;;;;;;4.28;1.52;;;;;;;;;;6340822;22;20017;-86
2022/10/24 12:27:05;;;;;;;3.20;1.98;;;;;;;;;;6314828;22;20040;-85
2022/10/24 12:29:36;;;;;;;2.80;1.33;;;;;;;;;;6316345;22;19986;-86
2022/10/24 12:32:28;;;;;;;3.22;1.40;;;;;;;;;;6314155;22;20022;-84
2022/10/24 12:34:59;;;;;;;4.00;1.40;;;;;;;;;;6360953;22;19991;-85
2022/10/24 12:37:30;;;;;;;5.47;1.60;;;;;;;;;;6340055;22;20017;-84
2022/10/24 12:39:59;;;;;;;3.10;1.30;;;;;;;;;;6312230;22;19995;-85
2022/10/24 12:42:44;;;;;;;5.75;1.50;;;;;;;;;;6320949;22;20055;-85
2022/10/24 12:45:10;;;;;;;;;;;;;;;;;;6311706;22;20007;-84
2022/10/24 12:47:37;;;;;;;5.32;1.70;;;;;;;;;;6311975;22;19906;-84
2022/10/24 12:50:21;;;;;;;3.83;1.67;;;;;;;;;;6312911;22;20006;-85
2022/10/24 12:52:54;;;;;;;5.78;2.00;;;;;;;;;;6336712;22;20029;-83
2022/10/24 12:55:46;;;;;;;4.68;2.08;;;;;;;;;;6336771;22;20015;-85
2022/10/24 12:58:20;;;;;;;4.35;2.13;;;;;;;;;;6255701;22;20016;-85
2022/10/24 13:00:52;;;;;;;3.60;1.90;;;;;;;;;;6309656;22;20014;-84
2022/10/24 13:03:21;;;;;;;4.95;2.10;;;;;;;;;;6285934;22;20058;-83
2022/10/24 13:06:06;;;;;;;4.75;2.00;;;;;;;;;;6287368;22;20012;-86
2022/10/24 13:08:45;;;;;;;2.80;1.65;;;;;;;;;;6337344;22;20010;-84
2022/10/24 13:11:30;;;;;;;4.18;1.73;;;;;;;;;;6310585;22;20007;-85
2022/10/24 13:13:57;;;;;;;3.55;1.85;;;;;;;;;;6339113;22;20019;-86
2022/10/24 13:30:24;;;;;;;3.08;1.60;;;;;;;;;;6329011;22;20030;-85
2022/10/24 13:32:50;;;;;;;2.88;1.60;;;;;;;;;;6255981;22;20023;-82
2022/10/24 13:35:15;;;;;;;;;;;;;;;;;;6279343;22;20043;-83
2022/10/24 13:37:42;;;;;;;4.40;1.50;;;;;;;;;;6279141;22;19894;-85
2022/10/24 13:40:09;;;;;;;6.78;1.70;;;;;;;;;;6304780;22;20007;-84
2022/10/24 13:42:43;;;;;;;3.90;1.90;;;;;;;;;;6277717;22;20011;-84
2022/10/24 13:45:18;;;;;;;5.50;2.20;;;;;;;;;;6304211;22;20007;-85
2022/10/24 13:47:44;;;;;;;3.28;1.73;;;;;;;;;;6278601;22;19987;-85
2022/10/24 13:50:10;;;;;;;;;;;;;;;;;;6281482;22;19982;-84
2022/10/24 13:52:56;;;;;;;8.80;1.80;;;;;;;;;;6306747;22;19891;-85
2022/10/24 13:55:24;;;;;;;6.72;2.28;;;;;;;;;;6305660;22;20023;-86
2022/10/24 13:57:53;;;;;;;4.95;2.20;;;;;;;;;;6253658;22;20000;-82
2022/10/24 14:00:24;;;;;;;4.90;1.92;;;;;;;;;;6305334;22;20013;-85
2022/10/24 14:02:50;;;;;;;6.20;1.98;;;;;;;;;;6282076;22;20025;-84
2022/10/24 14:05:22;;;;;;;4.20;1.67;;;;;;;;;;6306287;22;19980;-84
2022/10/24 14:07:48;;;;;;;3.88;1.70;;;;;;;;;;6257479;22;20011;-83
2022/10/24 14:10:15;;;;;;;;;;;;;;;;;;6283729;22;20077;-84
2022/10/24 14:12:43;;;;;;;6.22;1.92;;;;;;;;;;6284009;22;19921;-84
2022/10/24 14:15:19;;;;;;;3.28;1.85;;;;;;;;;;6284439;22;20007;-84
2022/10/24 14:17:55;;;;;;;4.90;2.00;;;;;;;;;;6284988;22;20011;-85
2022/10/24 14:20:32;;;;;;;4.25;1.77;;;;;;;;;;6308835;22;20037;-87
2022/10/24 14:22:58;;;;;;;7.60;2.60;;;;;;;;;;6307968;22;20008;-84
2022/10/24 14:25:23;;;;;;;;;;;;;;;;;;6256376;22;19986;-83
2022/10/24 14:27:52;;;;;;;6.30;2.53;;;;;;;;;;6281297;22;19933;-85
2022/10/24 14:30:21;;;;;;;5.80;2.63;;;;;;;;;;6334224;22;20011;-82
2022/10/24 14:32:48;;;;;;;7.13;2.13;;;;;;;;;;6282181;22;20019;-85
2022/10/24 14:35:13;;;;;;;;;;;;;;;;;;6256498;22;20018;-83
2022/10/24 14:40:15;;;;;;;5.95;2.38;;;;;;;;;;6361843;22;20026;-84
2022/10/24 14:42:43;;;;;;;5.45;2.50;;;;;;;;;;6312952;22;20006;-83
2022/10/24 14:45:32;;;;;;;6.10;2.90;;;;;;;;;;6336779;22;20006;-85
2022/10/24 14:48:02;;;;;;;6.05;3.33;;;;;;;;;;6312545;22;19991;-83
2022/10/24 14:50:40;;;;;;;5.22;3.60;;;;;;;;;;6310940;22;20066;-85
2022/10/24 14:53:13;;;;;;;9.25;4.18;;;;;;;;;;6309236;22;20014;-86
2022/10/24 14:55:39;;;;;;;7.30;4.63;;;;;;;;;;6286362;22;20056;-84
2022/10/24 14:58:05;;;;;;;9.20;4.93;;;;;;;;;;6283652;22;20046;-84
2022/10/24 15:00:34;;;;;;;10.27;4.95;;;;;;;;;;6284843;22;20006;-85
2022/10/24 15:03:01;;;;;;;12.93;5.28;;;;;;;;;;6285274;22;20002;-85
2022/10/24 15:05:26;;;;;;;8.00;4.35;;;;;;;;;;6336414;22;20017;-84
2022/10/24 15:07:53;;;;;;;9.45;4.60;;;;;;;;;;6336203;22;20003;-83
2022/10/24 15:10:23;;;;;;;10.13;3.70;;;;;;;;;;6285147;22;20056;-85
2022/10/24 15:12:55;;;;;;;10.63;4.25;;;;;;;;;;6309410;22;20050;-83
2022/10/24 15:18:06;;;;;;;12.63;4.50;;;;;;;;;;6323987;22;20027;-82
2022/10/24 15:20:37;;;;;;;9.67;4.03;;;;;;;;;;6308952;22;20017;-84
2022/10/24 15:23:03;;;;;;;8.07;3.85;;;;;;;;;;6284618;22;20265;-84
2022/10/24 15:25:32;;;;;;;12.07;4.10;;;;;;;;;;6311327;22;20010;-84
2022/10/24 15:27:58;;;;;;;9.68;4.43;;;;;;;;;;6285251;22;19995;-82
2022/10/24 15:30:25;;;;;;;17.38;7.45;;;;;;;;;;6282416;22;20018;-85
2022/10/24 15:32:52;;;;;;;13.00;8.93;;;;;;;;;;6284999;22;20007;-85
2022/10/24 15:35:18;;;;;;;14.63;7.50;;;;;;;;;;6284745;22;20010;-85
2022/10/24 15:38:02;;;;;;;14.05;7.05;;;;;;;;;;6282235;22;19995;-84
2022/10/24 15:40:33;;;;;;;12.35;7.22;;;;;;;;;;6310251;22;20012;-84
2022/10/24 15:42:59;;;;;;;18.92;7.20;;;;;;;;;;6337099;22;20026;-83
2022/10/24 15:45:25;;;;;;;10.10;5.20;;;;;;;;;;6283865;22;20362;-84
2022/10/24 15:47:51;;;;;;;;;;;;;;;;;;6282959;22;20062;-85
2022/10/24 15:50:20;;;;;;;12.45;4.35;;;;;;;;;;6336962;22;19903;-84
2022/10/24 15:52:53;;;;;;;6.00;3.70;;;;;;;;;;6286632;22;20018;-84
2022/10/24 15:55:20;;;;;;;7.88;3.72;;;;;;;;;;6309956;22;20036;-85
2022/10/24 15:57:45;;;;;;;11.75;5.30;;;;;;;;;;6308665;22;19998;-86
2022/10/24 16:00:12;;;;;;;9.32;5.03;;;;;;;;;;6335547;22;20047;-83
2022/10/24 16:02:38;;;;;;;9.85;3.92;;;;;;;;;;6308842;22;20007;-84
2022/10/24 16:05:06;;;;;;;7.50;3.17;;;;;;;;;;6282459;22;20013;-83
2022/10/24 16:07:31;;;;;;;6.10;2.97;;;;;;;;;;6338287;22;19986;-84
2022/10/24 16:10:00;;;;;;;9.25;2.70;;;;;;;;;;6338634;22;19995;-85
2022/10/24 16:12:27;;;;;;;11.27;3.20;;;;;;;;;;6309962;22;20014;-84
2022/10/24 16:14:53;;;;;;;5.40;2.88;;;;;;;;;;6281574;22;20010;-84
2022/10/24 16:17:19;;;;;;;6.18;2.80;;;;;;;;;;6307181;22;20002;-84